Time;durP1;ratioP1;P1;durP2;ratioP2;P2;SDS_P1;SDS_P2;PMS_P1;PMS_P2;Temp;Humidity;BMP_temperature;BMP_pressure;BME280_temperature;BME280_humidity;BME280_pressure;Samples;Min_cycle;Max_cycle;Signal;HPM_P1;HPM_P2
2021/06/23 00:00:22;;;;;;;8.15;2.40;;;42.70;17.80;;;;;;5069497;28;20153;-70
2021/06/23 00:02:49;;;;;;;8.55;2.45;;;42.50;17.50;;;;;;5068232;28;20069;-70
2021/06/23 00:05:17;;;;;;;6.05;2.55;;;42.50;17.80;;;;;;5071242;28;20077;-69
2021/06/23 00:07:44;;;;;;;7.50;2.10;;;42.50;17.30;;;;;;5069328;28;20090;-69
2021/06/23 00:10:13;;;;;;;9.98;2.20;;;42.40;17.60;;;;;;5070176;28;20077;-69
2021/06/23 00:12:40;;;;;;;10.55;2.53;;;42.50;17.70;;;;;;5069170;28;20077;-68
2021/06/23 00:15:10;;;;;;;8.48;2.63;;;42.50;17.60;;;;;;5068618;28;20081;-68
2021/06/23 00:17:37;;;;;;;9.82;2.72;;;42.50;18.30;;;;;;5069087;28;20081;-68
2021/06/23 00:20:06;;;;;;;10.07;2.83;;;42.50;18.40;;;;;;5068898;28;20100;-69
2021/06/23 00:22:33;;;;;;;16.63;2.35;;;42.50;18.90;;;;;;5068637;28;20198;-69
2021/06/23 00:24:59;;;;;;;18.20;2.83;;;42.40;19.00;;;;;;5069415;28;20091;-68
2021/06/23 00:27:26;;;;;;;9.05;2.50;;;42.40;19.30;;;;;;5067627;28;20077;-68
2021/06/23 00:29:53;;;;;;;13.65;2.85;;;42.20;19.80;;;;;;5068320;28;20073;-68
2021/06/23 00:32:24;;;;;;;8.70;2.47;;;42.20;20.40;;;;;;5068787;28;20066;-69
2021/06/23 00:34:50;;;;;;;8.60;2.55;;;42.20;19.80;;;;;;5065017;28;20163;-68
2021/06/23 00:37:17;;;;;;;18.25;2.85;;;42.20;19.80;;;;;;5069334;28;20077;-67
2021/06/23 00:39:43;;;;;;;24.83;3.50;;;42.20;21.30;;;;;;5069157;28;20096;-67
2021/06/23 00:42:11;;;;;;;38.17;5.45;;;42.00;23.10;;;;;;5069865;28;20449;-67
2021/06/23 00:44:41;;;;;;;36.10;5.70;;;41.80;24.00;;;;;;5069780;28;20494;-65
2021/06/23 00:47:09;;;;;;;28.23;4.97;;;41.70;24.50;;;;;;5066679;28;20087;-67
2021/06/23 00:49:37;;;;;;;33.88;5.07;;;41.50;25.20;;;;;;5070315;28;20565;-67
2021/06/23 00:52:04;;;;;;;35.42;5.00;;;41.20;25.30;;;;;;5070524;28;20073;-67
2021/06/23 00:54:30;;;;;;;58.13;5.97;;;41.00;25.50;;;;;;5071728;28;20080;-67
2021/06/23 00:56:58;;;;;;;29.25;3.58;;;40.80;25.30;;;;;;5070623;28;20097;-66
2021/06/23 00:59:26;;;;;;;22.90;4.20;;;40.50;24.90;;;;;;5071354;28;20096;-66
2021/06/23 01:01:52;;;;;;;41.78;5.25;;;40.40;25.50;;;;;;5069380;28;20081;-66
2021/06/23 01:04:20;;;;;;;21.73;4.00;;;40.20;26.10;;;;;;5070842;28;20073;-66
2021/06/23 01:06:47;;;;;;;22.45;4.15;;;39.90;26.20;;;;;;5069985;28;20077;-66
2021/06/23 01:09:14;;;;;;;24.05;4.20;;;39.80;25.50;;;;;;5068213;28;20163;-67
2021/06/23 01:12:02;;;;;;;29.42;3.83;;;39.70;26.00;;;;;;5069605;28;20080;-65
2021/06/23 01:14:33;;;;;;;24.55;3.78;;;39.60;25.80;;;;;;5069401;28;20534;-67
2021/06/23 01:17:02;;;;;;;22.23;4.20;;;39.50;26.20;;;;;;5069228;28;20077;-66
2021/06/23 01:19:33;;;;;;;22.65;3.35;;;39.40;26.30;;;;;;5069322;28;20101;-66
2021/06/23 01:22:00;;;;;;;29.23;4.38;;;39.30;26.40;;;;;;5067834;28;20455;-65
2021/06/23 01:24:27;;;;;;;29.25;4.68;;;39.20;26.90;;;;;;5069921;28;20076;-65
2021/06/23 01:26:53;;;;;;;26.45;4.22;;;39.10;27.30;;;;;;5069459;28;20153;-65
2021/06/23 01:29:20;;;;;;;22.95;4.55;;;39.00;26.90;;;;;;5068851;28;20156;-65
2021/06/23 01:31:46;;;;;;;22.58;4.97;;;38.80;26.90;;;;;;5069493;28;20073;-65
2021/06/23 01:34:13;;;;;;;25.70;4.30;;;38.70;27.00;;;;;;5069397;28;20156;-65
2021/06/23 01:36:39;;;;;;;24.83;4.80;;;38.60;27.10;;;;;;5070487;28;20080;-65
2021/06/23 01:39:06;;;;;;;33.03;5.20;;;38.40;27.00;;;;;;5069149;28;20126;-65
2021/06/23 01:41:33;;;;;;;21.85;4.40;;;38.30;26.80;;;;;;5067779;28;20170;-66
2021/06/23 01:44:01;;;;;;;28.10;4.13;;;38.10;27.10;;;;;;5069268;28;20073;-66
2021/06/23 01:46:27;;;;;;;21.50;5.28;;;38.00;27.30;;;;;;5069399;28;20081;-65
2021/06/23 01:48:56;;;;;;;23.17;4.28;;;37.90;27.50;;;;;;5069762;28;20079;-65
2021/06/23 01:51:27;;;;;;;31.33;4.07;;;37.70;27.80;;;;;;5063168;28;20104;-64
2021/06/23 01:53:54;;;;;;;25.98;4.47;;;37.60;27.80;;;;;;5060826;28;20131;-65
2021/06/23 01:56:20;;;;;;;19.63;4.30;;;37.60;27.90;;;;;;5066555;28;20491;-65
2021/06/23 01:58:47;;;;;;;25.17;3.78;;;37.40;27.80;;;;;;5063908;28;20109;-65
2021/06/23 02:01:24;;;;;;;23.08;3.75;;;37.40;28.00;;;;;;5064563;28;20093;-65
2021/06/23 02:04:30;;;;;;;28.50;4.50;;;37.30;28.00;;;;;;5061773;28;20069;-65
2021/06/23 02:07:13;;;;;;;17.17;3.83;;;37.30;28.10;;;;;;5050636;28;20077;-65
2021/06/23 02:09:45;;;;;;;17.17;3.78;;;37.10;28.10;;;;;;5060834;28;20080;-65
2021/06/23 02:12:18;;;;;;;21.00;3.90;;;37.10;28.40;;;;;;5063779;28;20526;-65
2021/06/23 02:14:45;;;;;;;18.08;4.20;;;37.10;28.50;;;;;;5063320;28;20082;-65
2021/06/23 02:17:13;;;;;;;26.80;3.60;;;37.00;28.60;;;;;;5063087;28;20706;-66
2021/06/23 02:19:49;;;;;;;17.60;3.50;;;36.90;28.70;;;;;;5061007;28;20256;-66
2021/06/23 02:22:25;;;;;;;23.77;3.20;;;36.90;28.90;;;;;;5062130;28;20172;-65
2021/06/23 02:25:12;;;;;;;20.92;3.30;;;36.80;29.20;;;;;;5066732;28;20083;-66
2021/06/23 02:27:44;;;;;;;22.15;3.90;;;36.70;29.30;;;;;;5064162;28;20487;-66
2021/06/23 02:30:12;;;;;;;22.25;3.47;;;36.70;29.00;;;;;;5061899;28;20124;-66
2021/06/23 02:32:40;;;;;;;24.67;4.07;;;36.60;29.20;;;;;;5063393;28;20093;-64
2021/06/23 02:35:09;;;;;;;25.40;3.83;;;36.60;29.30;;;;;;5062491;28;20596;-64
2021/06/23 02:37:37;;;;;;;30.25;4.20;;;36.50;29.40;;;;;;5060846;28;20073;-63
2021/06/23 02:40:06;;;;;;;21.05;4.30;;;36.40;29.60;;;;;;5064997;28;20228;-64
2021/06/23 02:42:33;;;;;;;25.63;4.32;;;36.40;29.90;;;;;;5063703;28;20119;-64
2021/06/23 02:45:00;;;;;;;22.90;4.22;;;36.30;30.00;;;;;;5063355;28;20069;-64
2021/06/23 02:47:27;;;;;;;17.13;4.03;;;36.30;30.20;;;;;;5061885;28;20090;-65
2021/06/23 02:49:54;;;;;;;18.65;3.40;;;36.20;29.90;;;;;;5065793;28;20421;-65
2021/06/23 02:52:21;;;;;;;21.80;3.97;;;36.10;29.60;;;;;;5066527;28;20069;-65
2021/06/23 02:54:48;;;;;;;26.73;4.95;;;36.10;29.30;;;;;;5066175;28;20433;-66
2021/06/23 02:57:14;;;;;;;17.85;4.40;;;36.00;29.10;;;;;;5046106;28;20073;-65
2021/06/23 02:59:42;;;;;;;25.08;4.50;;;35.90;28.90;;;;;;5064184;28;20101;-65
2021/06/23 03:02:08;;;;;;;24.25;4.28;;;35.90;28.90;;;;;;5065934;28;20077;-65
2021/06/23 03:04:35;;;;;;;23.13;4.32;;;35.90;28.80;;;;;;5068116;28;20069;-65
2021/06/23 03:07:11;;;;;;;28.00;4.47;;;35.80;28.70;;;;;;5064077;28;20073;-65
2021/06/23 03:09:39;;;;;;;30.42;4.75;;;35.70;28.80;;;;;;5063739;28;20902;-65
2021/06/23 03:12:07;;;;;;;20.17;4.32;;;35.70;28.70;;;;;;5061875;28;20446;-65
2021/06/23 03:14:33;;;;;;;14.00;3.42;;;35.70;28.70;;;;;;5063726;28;20073;-65
2021/06/23 03:17:00;;;;;;;23.15;3.95;;;35.60;28.70;;;;;;5063735;28;20084;-65
2021/06/23 03:19:27;;;;;;;18.90;3.42;;;35.60;28.90;;;;;;5063955;28;20089;-65
2021/06/23 03:21:53;;;;;;;11.25;3.13;;;35.50;28.80;;;;;;5064282;28;20085;-66
2021/06/23 03:24:20;;;;;;;19.23;3.50;;;35.50;28.80;;;;;;5067704;28;20419;-65
2021/06/23 03:26:47;;;;;;;14.30;2.70;;;35.50;28.00;;;;;;5065644;28;20545;-65
2021/06/23 03:29:32;;;;;;;15.70;3.97;;;35.40;27.80;;;;;;5064553;28;20581;-65
2021/06/23 03:32:01;;;;;;;20.75;3.50;;;35.40;27.70;;;;;;5065801;28;20084;-66
2021/06/23 03:34:27;;;;;;;14.77;3.22;;;35.30;27.90;;;;;;5064186;28;20509;-64
2021/06/23 03:36:54;;;;;;;12.27;3.22;;;35.30;27.90;;;;;;5061746;28;20159;-65
2021/06/23 03:39:21;;;;;;;14.60;2.85;;;35.30;28.00;;;;;;5068198;28;20081;-65
2021/06/23 03:41:48;;;;;;;11.20;3.38;;;35.30;27.90;;;;;;5063273;28;20122;-65
2021/06/23 03:44:14;;;;;;;22.75;4.18;;;35.20;27.60;;;;;;5062096;28;20072;-64
2021/06/23 03:46:41;;;;;;;16.67;3.83;;;35.20;27.40;;;;;;5063074;28;20135;-65
2021/06/23 03:49:08;;;;;;;17.42;3.67;;;35.20;27.40;;;;;;5064204;28;20426;-64
2021/06/23 03:51:34;;;;;;;17.95;3.50;;;35.20;27.80;;;;;;5065458;28;20084;-65
2021/06/23 03:54:02;;;;;;;15.90;3.40;;;35.20;28.00;;;;;;5061401;28;20076;-64
2021/06/23 03:56:30;;;;;;;25.98;4.22;;;35.10;28.20;;;;;;5063973;28;20077;-64
2021/06/23 03:58:57;;;;;;;22.65;4.70;;;35.10;28.10;;;;;;5061892;28;20544;-64
2021/06/23 04:01:23;;;;;;;20.77;5.40;;;35.00;28.10;;;;;;5070481;28;20101;-64
2021/06/23 04:03:50;;;;;;;19.17;4.72;;;34.90;28.20;;;;;;5063349;28;20086;-64
2021/06/23 04:06:16;;;;;;;21.50;4.57;;;34.90;28.20;;;;;;5061827;28;20081;-64
2021/06/23 04:08:42;;;;;;;18.20;3.88;;;34.90;28.40;;;;;;5063515;28;20152;-65
2021/06/23 04:11:09;;;;;;;24.60;3.85;;;34.80;28.20;;;;;;5070424;28;20095;-64
2021/06/23 04:13:35;;;;;;;31.60;4.40;;;34.80;28.20;;;;;;5063383;28;20081;-64
2021/06/23 04:16:02;;;;;;;26.50;4.50;;;34.80;28.30;;;;;;5065840;28;20079;-64
2021/06/23 04:18:29;;;;;;;21.23;5.05;;;34.80;28.30;;;;;;5065495;28;20077;-65
2021/06/23 04:20:56;;;;;;;29.17;5.45;;;34.70;28.30;;;;;;5065884;28;20097;-64
2021/06/23 04:23:22;;;;;;;17.35;4.45;;;34.70;28.40;;;;;;5065247;28;20069;-64
2021/06/23 04:25:49;;;;;;;16.35;3.63;;;34.70;28.50;;;;;;5061907;28;20480;-65
2021/06/23 04:28:16;;;;;;;14.52;3.47;;;34.60;28.80;;;;;;5065207;28;20070;-64
2021/06/23 04:30:42;;;;;;;11.38;4.03;;;34.60;29.00;;;;;;5067286;28;20084;-64
2021/06/23 04:33:09;;;;;;;22.98;4.03;;;34.60;29.30;;;;;;5061979;28;20549;-64
2021/06/23 04:35:35;;;;;;;21.77;4.53;;;34.50;29.80;;;;;;5065746;28;20123;-64
2021/06/23 04:38:02;;;;;;;22.15;3.88;;;34.50;30.10;;;;;;5059302;28;20069;-64
2021/06/23 04:40:29;;;;;;;16.08;4.47;;;34.50;30.10;;;;;;5064688;28;20116;-65
2021/06/23 04:42:55;;;;;;;20.10;4.22;;;34.40;30.20;;;;;;5063548;28;20099;-64
2021/06/23 04:45:22;;;;;;;15.77;4.00;;;34.40;30.40;;;;;;5066730;28;20134;-65
2021/06/23 04:47:49;;;;;;;17.52;4.00;;;34.30;30.20;;;;;;5064187;28;20583;-64
2021/06/23 04:50:15;;;;;;;18.23;3.92;;;34.30;30.40;;;;;;5059046;28;20087;-65
2021/06/23 04:52:42;;;;;;;17.27;3.42;;;34.30;30.40;;;;;;5065058;28;20065;-64
2021/06/23 04:55:09;;;;;;;16.73;3.42;;;34.30;30.40;;;;;;5065440;28;20105;-64
2021/06/23 04:57:37;;;;;;;20.83;3.95;;;34.30;30.60;;;;;;5064924;28;21218;-62
2021/06/23 05:00:05;;;;;;;24.50;4.07;;;34.50;30.40;;;;;;5065264;28;20093;-63
2021/06/23 05:02:31;;;;;;;21.27;4.05;;;35.10;30.00;;;;;;5059252;28;20105;-64
2021/06/23 05:04:58;;;;;;;20.13;3.53;;;35.60;29.20;;;;;;5059919;28;20073;-61
2021/06/23 05:07:25;;;;;;;21.23;4.18;;;36.10;28.70;;;;;;5061969;28;20083;-62
2021/06/23 05:09:51;;;;;;;20.27;3.83;;;36.00;28.40;;;;;;5059553;28;20085;-62
2021/06/23 05:12:19;;;;;;;20.85;4.00;;;35.90;28.70;;;;;;5059859;28;20127;-62
2021/06/23 05:14:46;;;;;;;21.55;3.95;;;36.10;29.20;;;;;;5064680;28;20074;-62
2021/06/23 05:17:12;;;;;;;18.38;4.20;;;36.20;28.40;;;;;;5060089;28;20152;-62
2021/06/23 05:19:40;;;;;;;24.90;4.10;;;36.10;28.70;;;;;;5062994;28;20572;-62
2021/06/23 05:22:10;;;;;;;28.98;4.47;;;36.00;28.70;;;;;;5064621;28;20088;-61
2021/06/23 05:24:39;;;;;;;29.45;5.15;;;36.00;28.60;;;;;;5066082;28;20069;-62
2021/06/23 05:27:07;;;;;;;25.70;5.13;;;36.00;28.80;;;;;;5060429;28;20121;-63
2021/06/23 05:29:33;;;;;;;26.48;6.60;;;35.90;28.80;;;;;;5062253;28;20085;-63
2021/06/23 05:32:01;;;;;;;35.33;5.95;;;35.90;29.00;;;;;;5061980;28;20073;-63
2021/06/23 05:34:31;;;;;;;34.25;5.72;;;35.90;29.20;;;;;;5065244;28;20106;-64
2021/06/23 05:36:58;;;;;;;31.33;5.05;;;35.70;29.40;;;;;;5062595;28;20456;-61
2021/06/23 05:39:25;;;;;;;37.78;6.72;;;35.60;29.70;;;;;;5060610;28;20074;-64
2021/06/23 05:41:53;;;;;;;35.05;6.53;;;35.50;30.00;;;;;;5063217;28;20115;-63
2021/06/23 05:44:19;;;;;;;33.10;6.00;;;35.50;30.20;;;;;;5059749;28;20518;-62
2021/06/23 05:46:47;;;;;;;23.83;6.00;;;35.50;30.40;;;;;;5064249;28;20077;-62
2021/06/23 05:49:13;;;;;;;33.03;5.95;;;35.40;30.60;;;;;;5061392;28;20087;-63
2021/06/23 05:51:40;;;;;;;33.08;6.03;;;35.40;30.80;;;;;;5062771;28;20081;-63
2021/06/23 05:54:06;;;;;;;28.73;5.07;;;35.40;30.80;;;;;;5064415;28;20084;-61
2021/06/23 05:56:33;;;;;;;30.77;5.63;;;35.40;30.90;;;;;;5063067;28;20096;-62
2021/06/23 05:58:59;;;;;;;37.58;6.75;;;35.30;31.50;;;;;;5060565;28;20151;-62
2021/06/23 06:01:26;;;;;;;32.75;6.13;;;35.20;31.60;;;;;;5057372;28;20108;-60
2021/06/23 06:03:53;;;;;;;19.63;6.25;;;35.10;31.80;;;;;;5060969;28;20156;-61
2021/06/23 06:06:19;;;;;;;27.05;6.13;;;35.00;31.90;;;;;;5060714;28;20081;-61
2021/06/23 06:08:46;;;;;;;28.10;5.45;;;34.90;32.00;;;;;;5059643;28;20600;-61
2021/06/23 06:11:12;;;;;;;24.90;5.82;;;34.80;32.20;;;;;;5064609;28;20102;-59
2021/06/23 06:13:39;;;;;;;39.38;5.45;;;34.80;32.50;;;;;;5061613;28;20077;-61
2021/06/23 06:16:05;;;;;;;28.27;6.30;;;34.70;32.50;;;;;;5062578;28;20149;-62
2021/06/23 06:18:32;;;;;;;25.88;5.78;;;34.60;33.10;;;;;;5068004;28;20419;-61
2021/06/23 06:20:59;;;;;;;19.08;5.78;;;34.60;33.70;;;;;;5064787;28;20098;-61
2021/06/23 06:23:26;;;;;;;25.50;5.95;;;34.60;33.20;;;;;;5064524;28;20081;-59
2021/06/23 06:25:53;;;;;;;25.88;5.38;;;34.40;33.20;;;;;;5062542;28;20544;-61
2021/06/23 06:28:20;;;;;;;19.13;5.70;;;34.30;33.20;;;;;;5068655;28;20526;-59
2021/06/23 06:30:47;;;;;;;26.05;6.40;;;34.30;33.60;;;;;;5069004;28;20077;-61
2021/06/23 06:33:14;;;;;;;17.17;5.38;;;34.20;33.60;;;;;;5065692;28;20073;-61
2021/06/23 06:35:41;;;;;;;28.75;6.82;;;34.20;34.10;;;;;;5066569;28;20108;-61
2021/06/23 06:38:07;;;;;;;21.85;6.25;;;34.10;34.00;;;;;;5065696;28;20087;-61
2021/06/23 06:40:34;;;;;;;26.30;6.75;;;34.10;34.10;;;;;;5066030;28;20120;-62
2021/06/23 06:43:00;;;;;;;24.88;7.05;;;34.10;33.80;;;;;;5067607;28;20175;-61
2021/06/23 06:45:27;;;;;;;28.98;7.00;;;34.00;34.00;;;;;;5066671;28;20077;-61
2021/06/23 06:47:54;;;;;;;23.98;7.63;;;34.00;34.60;;;;;;5064393;28;20085;-61
2021/06/23 06:50:20;;;;;;;24.13;7.50;;;33.90;34.70;;;;;;5064078;28;20078;-61
2021/06/23 06:52:47;;;;;;;23.27;6.93;;;33.90;34.90;;;;;;5066529;28;20065;-59
2021/06/23 06:55:20;;;;;;;21.88;6.35;;;33.80;34.40;;;;;;5067352;28;20077;-60
2021/06/23 06:57:51;;;;;;;32.67;7.68;;;33.80;34.00;;;;;;5067510;28;20077;-60
2021/06/23 07:00:19;;;;;;;26.08;8.02;;;33.70;35.00;;;;;;5067090;28;20514;-62
2021/06/23 07:02:47;;;;;;;29.95;7.45;;;33.60;34.50;;;;;;5065225;28;21286;-60
2021/06/23 07:05:14;;;;;;;34.22;7.60;;;33.60;35.00;;;;;;5064022;28;20074;-62
2021/06/23 07:07:40;;;;;;;20.73;6.88;;;33.60;35.50;;;;;;5064829;28;20081;-62
2021/06/23 07:10:07;;;;;;;23.23;6.82;;;33.50;35.20;;;;;;5065802;28;20099;-61
2021/06/23 07:12:34;;;;;;;23.73;7.07;;;33.50;35.80;;;;;;5063715;28;20215;-61
2021/06/23 07:15:01;;;;;;;32.38;7.30;;;33.50;35.70;;;;;;5065449;28;20085;-62
2021/06/23 07:17:27;;;;;;;33.58;7.53;;;33.50;35.70;;;;;;5065502;28;20078;-62
2021/06/23 07:19:54;;;;;;;37.28;7.25;;;33.50;35.70;;;;;;5061606;28;20481;-61
2021/06/23 07:22:22;;;;;;;22.77;6.22;;;33.40;37.00;;;;;;5063877;28;20069;-60
2021/06/23 07:24:48;;;;;;;20.65;5.60;;;33.30;35.60;;;;;;5063250;28;21467;-61
2021/06/23 07:27:15;;;;;;;28.55;6.63;;;33.30;36.00;;;;;;5068552;28;20089;-61
2021/06/23 07:29:41;;;;;;;30.52;5.85;;;33.30;36.30;;;;;;5067166;28;20093;-60
2021/06/23 07:32:13;;;;;;;32.17;5.70;;;33.10;37.80;;;;;;5064324;28;20081;-61
2021/06/23 07:37:14;;;;;;;31.52;5.68;;;33.00;37.20;;;;;;5065008;28;20089;-61
2021/06/23 07:39:41;;;;;;;24.58;4.97;;;33.00;37.10;;;;;;5066026;28;20468;-62
2021/06/23 07:42:09;;;;;;;24.92;5.45;;;32.90;36.50;;;;;;5066994;28;20187;-59
2021/06/23 07:44:42;;;;;;;30.08;5.70;;;32.90;36.30;;;;;;5062081;28;20085;-61
2021/06/23 07:47:13;;;;;;;24.23;5.25;;;32.80;36.50;;;;;;5065482;28;20077;-62
2021/06/23 07:49:42;;;;;;;34.30;7.22;;;32.70;36.80;;;;;;5065364;28;20167;-62
2021/06/23 07:54:57;;;;;;;43.88;6.35;;;32.60;37.30;;;;;;5063485;28;20074;-62
2021/06/23 08:08:52;;;;;;;25.73;6.10;;;32.60;37.00;;;;;;5062600;28;20096;-62
2021/06/23 08:11:29;;;;;;;26.33;5.90;;;32.50;36.70;;;;;;5064593;28;20080;-60
2021/06/23 08:13:55;;;;;;;23.45;5.63;;;32.60;37.60;;;;;;5063359;28;20068;-62
2021/06/23 08:16:22;;;;;;;29.42;5.50;;;32.60;37.40;;;;;;5062574;28;20078;-62
2021/06/23 08:18:49;;;;;;;31.75;5.93;;;32.50;37.40;;;;;;5064952;28;20457;-62
2021/06/23 08:21:15;;;;;;;24.90;5.50;;;32.50;37.20;;;;;;5065497;28;20119;-61
2021/06/23 08:23:42;;;;;;;21.05;5.72;;;32.50;36.60;;;;;;5064597;28;20080;-63
2021/06/23 08:26:09;;;;;;;23.88;5.45;;;32.60;36.70;;;;;;5064064;28;20073;-63
2021/06/23 08:28:37;;;;;;;26.33;5.80;;;32.60;36.30;;;;;;5065410;28;20557;-63
2021/06/23 08:31:04;;;;;;;21.30;5.65;;;32.60;36.30;;;;;;5063225;28;20080;-63
2021/06/23 08:33:30;;;;;;;23.00;5.53;;;32.50;36.20;;;;;;5059618;28;20095;-62
2021/06/23 08:35:57;;;;;;;25.50;5.50;;;32.50;36.40;;;;;;5067508;28;20108;-63
2021/06/23 08:38:24;;;;;;;18.95;5.00;;;32.40;36.10;;;;;;5065702;28;20171;-62
2021/06/23 08:40:51;;;;;;;16.13;4.78;;;32.50;35.90;;;;;;5061104;28;20112;-63
2021/06/23 08:43:20;;;;;;;13.80;3.90;;;32.50;35.80;;;;;;5063303;28;20104;-63
2021/06/23 08:45:47;;;;;;;11.27;3.58;;;32.40;35.60;;;;;;5064845;28;20167;-63
2021/06/23 08:48:14;;;;;;;18.05;4.03;;;32.30;35.70;;;;;;5064346;28;20473;-57
2021/06/23 08:50:42;;;;;;;16.52;3.88;;;32.30;35.60;;;;;;5063112;28;20073;-63
2021/06/23 08:53:10;;;;;;;12.38;3.72;;;32.40;35.60;;;;;;5060175;28;20126;-60
2021/06/23 08:55:37;;;;;;;18.10;3.95;;;32.40;35.30;;;;;;5062120;28;20438;-63
2021/06/23 08:58:05;;;;;;;10.05;3.25;;;32.40;35.30;;;;;;5063111;28;20070;-63
2021/06/23 09:00:32;;;;;;;14.98;3.90;;;32.40;35.10;;;;;;5062698;28;20728;-62
2021/06/23 09:03:01;;;;;;;16.45;3.80;;;32.40;35.00;;;;;;5060125;28;20077;-62
2021/06/23 09:05:46;;;;;;;14.18;3.78;;;32.40;34.90;;;;;;5059537;28;20074;-62
2021/06/23 09:08:13;;;;;;;10.40;3.70;;;32.40;34.70;;;;;;5059916;28;20097;-62
2021/06/23 09:10:39;;;;;;;14.23;3.90;;;32.30;34.90;;;;;;5061469;28;20112;-61
2021/06/23 09:13:09;;;;;;;12.93;3.60;;;32.30;35.00;;;;;;5063669;28;20144;-62
2021/06/23 09:15:57;;;;;;;12.60;4.63;;;32.40;34.80;;;;;;5062042;28;20084;-62
2021/06/23 09:18:33;;;;;;;18.25;5.35;;;32.40;34.60;;;;;;5062499;28;20088;-61
2021/06/23 09:21:12;;;;;;;10.88;4.40;;;32.40;34.70;;;;;;5066026;28;20092;-62
2021/06/23 09:23:53;;;;;;;10.55;4.38;;;32.40;34.80;;;;;;5067361;28;20172;-63
2021/06/23 09:26:20;;;;;;;20.63;4.35;;;32.40;34.40;;;;;;5062297;28;20172;-62
2021/06/23 09:29:11;;;;;;;14.18;5.30;;;32.50;34.50;;;;;;5061425;28;21465;-62
2021/06/23 09:32:00;;;;;;;19.02;4.70;;;32.50;34.60;;;;;;5062471;28;20070;-60
2021/06/23 09:34:34;;;;;;;14.52;5.15;;;32.50;34.60;;;;;;5064384;28;20663;-63
2021/06/23 09:37:21;;;;;;;18.23;4.72;;;32.50;34.60;;;;;;5063646;28;20081;-63
2021/06/23 09:39:47;;;;;;;17.17;4.32;;;32.60;34.90;;;;;;5063282;28;20092;-62
2021/06/23 09:42:14;;;;;;;16.17;4.63;;;32.50;34.30;;;;;;5062299;28;20097;-60
2021/06/23 09:44:46;;;;;;;16.55;4.72;;;32.50;34.00;;;;;;5062842;28;20065;-61
2021/06/23 09:47:12;;;;;;;15.45;4.20;;;32.50;34.10;;;;;;5060051;28;20077;-61
2021/06/23 09:49:43;;;;;;;14.15;4.20;;;32.50;34.10;;;;;;5066199;28;20411;-62
2021/06/23 09:52:14;;;;;;;14.93;4.25;;;32.50;34.20;;;;;;5062565;28;20081;-62
2021/06/23 09:54:57;;;;;;;12.23;4.35;;;32.50;34.30;;;;;;5063438;28;20155;-61
2021/06/23 09:57:24;;;;;;;14.25;3.92;;;32.50;34.20;;;;;;5064268;28;20147;-61
2021/06/23 09:59:53;;;;;;;12.02;4.00;;;32.60;34.30;;;;;;5065054;28;20123;-61
2021/06/23 10:02:40;;;;;;;15.10;4.15;;;32.60;34.00;;;;;;5061300;28;20607;-60
2021/06/23 10:05:29;;;;;;;14.00;3.60;;;32.60;33.90;;;;;;5062767;28;20081;-58
2021/06/23 10:07:55;;;;;;;11.93;3.92;;;32.60;33.90;;;;;;5063949;28;20568;-61
2021/06/23 10:10:24;;;;;;;23.95;9.30;;;32.50;34.10;;;;;;5062482;28;20422;-61
2021/06/23 10:12:53;;;;;;;22.67;8.27;;;32.50;36.30;;;;;;5061631;28;20434;-61
2021/06/23 10:15:21;;;;;;;20.45;5.55;;;32.30;38.40;;;;;;5062197;28;20077;-59
2021/06/23 10:17:47;;;;;;;18.77;4.65;;;32.00;39.80;;;;;;5063407;28;20088;-58
2021/06/23 10:20:16;;;;;;;14.35;4.20;;;32.00;40.50;;;;;;5061228;28;20098;-59
2021/06/23 10:22:44;;;;;;;21.20;4.90;;;31.90;41.30;;;;;;5062645;28;20065;-60
2021/06/23 10:25:14;;;;;;;16.40;4.07;;;31.70;42.80;;;;;;5060688;28;20077;-56
2021/06/23 10:27:43;;;;;;;13.27;4.03;;;31.60;44.10;;;;;;5061277;28;20165;-60
2021/06/23 10:30:10;;;;;;;13.05;4.03;;;31.50;45.30;;;;;;5059404;28;20073;-59
2021/06/23 10:32:38;;;;;;;13.25;4.05;;;31.60;48.20;;;;;;5060841;28;20081;-59
2021/06/23 10:35:08;;;;;;;18.08;4.10;;;31.50;50.10;;;;;;5061574;28;20088;-60
2021/06/23 10:37:37;;;;;;;21.23;4.75;;;31.20;52.70;;;;;;5063965;28;20077;-60
2021/06/23 10:40:06;;;;;;;14.68;4.50;;;31.00;53.20;;;;;;5063125;28;20096;-58
2021/06/23 10:42:33;;;;;;;16.67;4.03;;;30.90;53.40;;;;;;5060055;28;20080;-60
2021/06/23 10:45:00;;;;;;;19.65;4.38;;;30.90;53.60;;;;;;5065600;28;20069;-60
2021/06/23 10:47:37;;;;;;;15.45;4.05;;;30.90;54.10;;;;;;5065840;28;20091;-60
2021/06/23 10:50:05;;;;;;;15.88;4.00;;;30.80;54.30;;;;;;5060978;28;20081;-60
2021/06/23 10:52:34;;;;;;;19.95;4.10;;;30.70;55.10;;;;;;5061641;28;20088;-60
2021/06/23 10:55:22;;;;;;;18.45;4.22;;;30.70;55.90;;;;;;5063023;28;20092;-61
2021/06/23 10:58:24;;;;;;;18.27;3.97;;;30.70;56.50;;;;;;5064436;28;20120;-61
2021/06/23 11:01:11;;;;;;;17.83;4.20;;;30.60;56.30;;;;;;5055230;28;20104;-61
2021/06/23 11:04:03;;;;;;;15.07;3.53;;;30.60;56.00;;;;;;5058757;28;20069;-61
2021/06/23 11:06:42;;;;;;;16.48;4.07;;;30.60;55.40;;;;;;5065123;28;20077;-61
2021/06/23 11:09:29;;;;;;;15.27;3.90;;;30.60;55.20;;;;;;5065010;28;20163;-61
2021/06/23 11:11:56;;;;;;;19.00;4.18;;;30.60;55.30;;;;;;5067043;28;20108;-60
2021/06/23 11:14:25;;;;;;;17.48;3.92;;;30.50;55.60;;;;;;5063806;28;20445;-57
2021/06/23 11:16:52;;;;;;;20.48;4.07;;;30.40;55.80;;;;;;5063916;28;20081;-59
2021/06/23 11:19:19;;;;;;;24.83;4.82;;;30.30;56.30;;;;;;5066693;28;20172;-61
2021/06/23 11:21:46;;;;;;;16.25;3.83;;;30.20;56.60;;;;;;5064887;28;20101;-61
2021/06/23 11:24:15;;;;;;;17.35;4.13;;;30.20;57.00;;;;;;5064735;28;20126;-61
2021/06/23 11:26:47;;;;;;;26.00;3.92;;;30.10;57.60;;;;;;5064628;28;20097;-60
2021/06/23 11:29:13;;;;;;;15.40;4.15;;;30.00;58.00;;;;;;5062528;28;20074;-58
2021/06/23 11:31:49;;;;;;;16.55;3.63;;;29.90;58.30;;;;;;5064257;28;20489;-62
2021/06/23 11:34:40;;;;;;;14.67;3.50;;;29.80;58.70;;;;;;5063915;28;20084;-62
2021/06/23 11:37:09;;;;;;;19.95;3.88;;;29.80;59.00;;;;;;5051642;28;20093;-62
2021/06/23 11:39:36;;;;;;;15.93;3.70;;;29.80;59.20;;;;;;5062249;28;20177;-62
2021/06/23 11:42:04;;;;;;;21.55;4.55;;;29.80;59.30;;;;;;5060886;28;20568;-61
2021/06/23 11:44:31;;;;;;;22.92;4.20;;;29.70;59.60;;;;;;5063415;28;20076;-62
2021/06/23 11:46:58;;;;;;;17.80;3.67;;;29.60;60.20;;;;;;5064365;28;20073;-61
2021/06/23 11:49:25;;;;;;;22.45;5.03;;;29.60;60.60;;;;;;5066723;28;20073;-61
2021/06/23 11:51:52;;;;;;;25.67;4.45;;;29.50;61.50;;;;;;5064486;28;20080;-62
2021/06/23 11:54:18;;;;;;;31.98;3.88;;;29.40;62.40;;;;;;5065209;28;20095;-60
2021/06/23 11:56:45;;;;;;;21.92;4.70;;;29.40;63.40;;;;;;5065275;28;20423;-57
2021/06/23 11:59:11;;;;;;;23.77;4.38;;;29.30;64.10;;;;;;5062044;28;20127;-61
2021/06/23 12:01:38;;;;;;;21.90;4.55;;;29.30;64.50;;;;;;5063941;28;20214;-62
2021/06/23 12:04:04;;;;;;;25.10;4.13;;;29.20;65.10;;;;;;5063579;28;20077;-61
2021/06/23 12:06:31;;;;;;;14.43;3.85;;;29.20;66.00;;;;;;5064316;28;20607;-60
2021/06/23 12:08:57;;;;;;;18.27;4.13;;;29.20;66.40;;;;;;5065055;28;20076;-59
2021/06/23 12:11:24;;;;;;;19.77;4.47;;;29.20;67.20;;;;;;5065717;28;20210;-60
2021/06/23 12:13:50;;;;;;;22.85;5.07;;;29.10;67.60;;;;;;5067792;28;20092;-60
2021/06/23 12:16:17;;;;;;;21.00;6.03;;;29.20;67.90;;;;;;5064929;28;20083;-62
2021/06/23 12:18:43;;;;;;;19.08;5.90;;;29.20;67.80;;;;;;5061278;28;20092;-62
2021/06/23 12:21:10;;;;;;;20.48;5.00;;;29.20;68.00;;;;;;5063447;28;20111;-62
2021/06/23 12:23:37;;;;;;;16.60;5.03;;;29.10;68.10;;;;;;5063509;28;20325;-61
2021/06/23 12:26:04;;;;;;;16.35;5.43;;;29.20;68.40;;;;;;5064063;28;20144;-62
2021/06/23 12:28:31;;;;;;;23.55;5.05;;;29.10;68.80;;;;;;5062087;28;20077;-59
2021/06/23 12:30:57;;;;;;;17.65;5.15;;;29.10;68.70;;;;;;5063365;28;20104;-62
2021/06/23 12:33:24;;;;;;;14.27;5.22;;;29.10;68.90;;;;;;5063371;28;20073;-62
2021/06/23 12:35:50;;;;;;;19.00;5.50;;;29.10;69.10;;;;;;5068319;28;20107;-63
2021/06/23 12:38:19;;;;;;;16.77;5.50;;;29.10;69.30;;;;;;5060346;28;20077;-62
2021/06/23 12:40:46;;;;;;;26.23;5.20;;;29.20;69.00;;;;;;5061268;28;20120;-63
2021/06/23 12:43:14;;;;;;;20.45;5.15;;;29.30;68.90;;;;;;5065644;28;20488;-63
2021/06/23 12:45:43;;;;;;;24.83;4.93;;;29.20;69.00;;;;;;5063215;28;20080;-63
2021/06/23 12:48:10;;;;;;;29.35;6.25;;;29.30;69.00;;;;;;5064669;28;20572;-61
2021/06/23 12:50:37;;;;;;;25.75;5.53;;;29.40;68.80;;;;;;5063213;28;20619;-62
2021/06/23 12:53:04;;;;;;;18.63;5.78;;;29.40;68.80;;;;;;5065323;28;20203;-63
2021/06/23 12:55:31;;;;;;;23.65;6.25;;;29.40;69.70;;;;;;5065517;28;20088;-62
2021/06/23 12:57:58;;;;;;;28.83;7.07;;;29.40;69.20;;;;;;5064932;28;20168;-63
2021/06/23 13:00:25;;;;;;;31.63;6.88;;;29.40;69.20;;;;;;5064608;28;20105;-62
2021/06/23 13:02:52;;;;;;;27.23;7.25;;;29.40;69.10;;;;;;5063040;28;20076;-64